sensor_id;sensor_type;location;lat;lon;timestamp;P1;durP1;ratioP1;P2;durP2;ratioP2
21122;SDS011;10719;48.130;11.630;2023-11-19T00:02:10;3.92;;;2.03;;
21122;SDS011;10719;48.130;11.630;2023-11-19T00:04:38;5.53;;;1.90;;
21122;SDS011;10719;48.130;11.630;2023-11-19T00:07:05;4.82;;;1.80;;
21122;SDS011;10719;48.130;11.630;2023-11-19T00:09:32;3.97;;;1.65;;
21122;SDS011;10719;48.130;11.630;2023-11-19T00:11:58;9.88;;;2.10;;
21122;SDS011;10719;48.130;11.630;2023-11-19T00:14:25;3.15;;;1.75;;
21122;SDS011;10719;48.130;11.630;2023-11-19T00:16:51;4.75;;;1.95;;
21122;SDS011;10719;48.130;11.630;2023-11-19T00:19:18;4.53;;;1.92;;
21122;SDS011;10719;48.130;11.630;2023-11-19T00:21:44;5.78;;;2.20;;
21122;SDS011;10719;48.130;11.630;2023-11-19T00:24:10;4.18;;;1.85;;
21122;SDS011;10719;48.130;11.630;2023-11-19T00:26:37;3.67;;;1.90;;
21122;SDS011;10719;48.130;11.630;2023-11-19T00:29:03;5.00;;;2.08;;
21122;SDS011;10719;48.130;11.630;2023-11-19T00:31:29;4.05;;;1.92;;
21122;SDS011;10719;48.130;11.630;2023-11-19T00:33:55;5.00;;;2.08;;
21122;SDS011;10719;48.130;11.630;2023-11-19T00:36:20;10.10;;;2.75;;
21122;SDS011;10719;48.130;11.630;2023-11-19T00:38:46;7.30;;;1.90;;
21122;SDS011;10719;48.130;11.630;2023-11-19T00:41:11;5.95;;;2.30;;
21122;SDS011;10719;48.130;11.630;2023-11-19T00:43:37;5.03;;;2.03;;
21122;SDS011;10719;48.130;11.630;2023-11-19T00:46:03;3.78;;;2.00;;
21122;SDS011;10719;48.130;11.630;2023-11-19T00:48:32;4.32;;;1.77;;
21122;SDS011;10719;48.130;11.630;2023-11-19T00:50:57;5.28;;;2.13;;
21122;SDS011;10719;48.130;11.630;2023-11-19T00:53:23;6.30;;;2.08;;
21122;SDS011;10719;48.130;11.630;2023-11-19T00:55:48;6.22;;;2.63;;
21122;SDS011;10719;48.130;11.630;2023-11-19T00:58:14;7.10;;;2.38;;
21122;SDS011;10719;48.130;11.630;2023-11-19T01:00:39;4.82;;;2.20;;
21122;SDS011;10719;48.130;11.630;2023-11-19T01:03:05;5.00;;;1.80;;
21122;SDS011;10719;48.130;11.630;2023-11-19T01:05:32;4.25;;;1.67;;
21122;SDS011;10719;48.130;11.630;2023-11-19T01:07:58;3.08;;;1.55;;
21122;SDS011;10719;48.130;11.630;2023-11-19T01:10:23;3.95;;;1.70;;
21122;SDS011;10719;48.130;11.630;2023-11-19T01:12:50;5.28;;;1.98;;
21122;SDS011;10719;48.130;11.630;2023-11-19T01:15:17;4.55;;;2.10;;
21122;SDS011;10719;48.130;11.630;2023-11-19T01:17:43;5.70;;;2.30;;
21122;SDS011;10719;48.130;11.630;2023-11-19T01:20:09;4.63;;;1.80;;
21122;SDS011;10719;48.130;11.630;2023-11-19T01:22:38;6.60;;;2.13;;
21122;SDS011;10719;48.130;11.630;2023-11-19T01:25:03;3.65;;;1.48;;
21122;SDS011;10719;48.130;11.630;2023-11-19T01:27:30;2.97;;;1.55;;
21122;SDS011;10719;48.130;11.630;2023-11-19T01:29:56;4.35;;;1.70;;
21122;SDS011;10719;48.130;11.630;2023-11-19T01:32:22;3.65;;;1.70;;
21122;SDS011;10719;48.130;11.630;2023-11-19T01:34:49;4.82;;;2.13;;
21122;SDS011;10719;48.130;11.630;2023-11-19T01:37:14;5.97;;;2.30;;
21122;SDS011;10719;48.130;11.630;2023-11-19T01:39:43;3.40;;;1.42;;
21122;SDS011;10719;48.130;11.630;2023-11-19T01:42:09;4.72;;;1.90;;
21122;SDS011;10719;48.130;11.630;2023-11-19T01:44:34;5.28;;;1.90;;
21122;SDS011;10719;48.130;11.630;2023-11-19T01:47:00;3.00;;;1.60;;
21122;SDS011;10719;48.130;11.630;2023-11-19T01:49:27;3.97;;;1.85;;
21122;SDS011;10719;48.130;11.630;2023-11-19T01:51:53;4.88;;;1.65;;
21122;SDS011;10719;48.130;11.630;2023-11-19T01:54:19;5.90;;;1.67;;
21122;SDS011;10719;48.130;11.630;2023-11-19T01:56:45;4.90;;;1.80;;
21122;SDS011;10719;48.130;11.630;2023-11-19T01:59:11;6.93;;;2.10;;
21122;SDS011;10719;48.130;11.630;2023-11-19T02:01:38;2.47;;;1.52;;
21122;SDS011;10719;48.130;11.630;2023-11-19T02:04:08;3.17;;;1.30;;
21122;SDS011;10719;48.130;11.630;2023-11-19T02:06:34;3.42;;;1.40;;
21122;SDS011;10719;48.130;11.630;2023-11-19T02:09:05;2.30;;;1.35;;
21122;SDS011;10719;48.130;11.630;2023-11-19T02:11:33;2.60;;;1.25;;
21122;SDS011;10719;48.130;11.630;2023-11-19T02:14:00;3.42;;;1.55;;
21122;SDS011;10719;48.130;11.630;2023-11-19T02:16:26;3.75;;;1.33;;
21122;SDS011;10719;48.130;11.630;2023-11-19T02:18:51;4.18;;;1.40;;
21122;SDS011;10719;48.130;11.630;2023-11-19T02:21:17;5.35;;;1.30;;
21122;SDS011;10719;48.130;11.630;2023-11-19T02:23:43;2.47;;;1.40;;
21122;SDS011;10719;48.130;11.630;2023-11-19T02:26:18;2.20;;;1.35;;
21122;SDS011;10719;48.130;11.630;2023-11-19T02:28:51;1.98;;;1.25;;
21122;SDS011;10719;48.130;11.630;2023-11-19T02:31:17;2.95;;;1.20;;
21122;SDS011;10719;48.130;11.630;2023-11-19T02:33:44;3.22;;;1.30;;
21122;SDS011;10719;48.130;11.630;2023-11-19T02:36:09;2.55;;;1.13;;
21122;SDS011;10719;48.130;11.630;2023-11-19T02:38:35;3.47;;;1.50;;
21122;SDS011;10719;48.130;11.630;2023-11-19T02:41:03;2.92;;;1.38;;
21122;SDS011;10719;48.130;11.630;2023-11-19T02:43:31;1.67;;;0.90;;
21122;SDS011;10719;48.130;11.630;2023-11-19T02:45:58;2.92;;;1.27;;
21122;SDS011;10719;48.130;11.630;2023-11-19T02:48:27;4.07;;;1.05;;
21122;SDS011;10719;48.130;11.630;2023-11-19T02:50:53;1.73;;;1.02;;
21122;SDS011;10719;48.130;11.630;2023-11-19T02:53:18;2.92;;;1.30;;
21122;SDS011;10719;48.130;11.630;2023-11-19T02:55:47;3.22;;;1.33;;
21122;SDS011;10719;48.130;11.630;2023-11-19T02:58:15;3.65;;;1.25;;
21122;SDS011;10719;48.130;11.630;2023-11-19T03:00:48;1.92;;;1.13;;
21122;SDS011;10719;48.130;11.630;2023-11-19T03:03:27;3.30;;;1.40;;
21122;SDS011;10719;48.130;11.630;2023-11-19T03:06:03;3.30;;;1.25;;
21122;SDS011;10719;48.130;11.630;2023-11-19T03:08:34;1.20;;;0.90;;
21122;SDS011;10719;48.130;11.630;2023-11-19T03:11:00;1.83;;;1.10;;
21122;SDS011;10719;48.130;11.630;2023-11-19T03:13:26;2.22;;;1.20;;
21122;SDS011;10719;48.130;11.630;2023-11-19T03:15:52;1.52;;;1.00;;
21122;SDS011;10719;48.130;11.630;2023-11-19T03:18:18;2.30;;;1.10;;
21122;SDS011;10719;48.130;11.630;2023-11-19T03:20:45;2.15;;;1.13;;
21122;SDS011;10719;48.130;11.630;2023-11-19T03:23:11;4.30;;;1.20;;
21122;SDS011;10719;48.130;11.630;2023-11-19T03:25:37;1.38;;;0.80;;
21122;SDS011;10719;48.130;11.630;2023-11-19T03:28:03;3.20;;;1.23;;
21122;SDS011;10719;48.130;11.630;2023-11-19T03:30:29;3.42;;;1.40;;
21122;SDS011;10719;48.130;11.630;2023-11-19T03:32:56;3.00;;;1.10;;
21122;SDS011;10719;48.130;11.630;2023-11-19T03:35:23;2.55;;;1.08;;
21122;SDS011;10719;48.130;11.630;2023-11-19T03:37:49;2.70;;;1.23;;
21122;SDS011;10719;48.130;11.630;2023-11-19T03:40:15;2.70;;;1.10;;
21122;SDS011;10719;48.130;11.630;2023-11-19T03:42:41;2.08;;;1.10;;
21122;SDS011;10719;48.130;11.630;2023-11-19T03:45:07;1.85;;;0.95;;
21122;SDS011;10719;48.130;11.630;2023-11-19T03:47:36;2.15;;;1.08;;
21122;SDS011;10719;48.130;11.630;2023-11-19T03:50:02;1.52;;;0.90;;
21122;SDS011;10719;48.130;11.630;2023-11-19T03:52:28;2.63;;;1.17;;
21122;SDS011;10719;48.130;11.630;2023-11-19T03:54:54;3.40;;;1.08;;
21122;SDS011;10719;48.130;11.630;2023-11-19T03:57:20;2.70;;;1.05;;
21122;SDS011;10719;48.130;11.630;2023-11-19T03:59:46;1.98;;;0.85;;
21122;SDS011;10719;48.130;11.630;2023-11-19T04:02:12;2.53;;;1.02;;
21122;SDS011;10719;48.130;11.630;2023-11-19T04:04:38;4.28;;;1.45;;
21122;SDS011;10719;48.130;11.630;2023-11-19T04:07:04;2.53;;;1.00;;
21122;SDS011;10719;48.130;11.630;2023-11-19T04:09:30;2.83;;;1.00;;
21122;SDS011;10719;48.130;11.630;2023-11-19T04:11:58;2.33;;;1.10;;
21122;SDS011;10719;48.130;11.630;2023-11-19T04:14:24;2.63;;;1.02;;
21122;SDS011;10719;48.130;11.630;2023-11-19T04:16:50;2.22;;;1.10;;
21122;SDS011;10719;48.130;11.630;2023-11-19T04:19:16;3.78;;;1.52;;
21122;SDS011;10719;48.130;11.630;2023-11-19T04:21:42;1.30;;;0.93;;
21122;SDS011;10719;48.130;11.630;2023-11-19T04:24:08;1.17;;;0.90;;
21122;SDS011;10719;48.130;11.630;2023-11-19T04:26:39;8.75;;;1.30;;
21122;SDS011;10719;48.130;11.630;2023-11-19T04:29:07;3.35;;;1.58;;
21122;SDS011;10719;48.130;11.630;2023-11-19T04:31:34;5.43;;;1.88;;
21122;SDS011;10719;48.130;11.630;2023-11-19T04:33:59;2.33;;;1.15;;
21122;SDS011;10719;48.130;11.630;2023-11-19T04:36:25;1.73;;;1.08;;
21122;SDS011;10719;48.130;11.630;2023-11-19T04:38:51;3.75;;;1.17;;
21122;SDS011;10719;48.130;11.630;2023-11-19T04:41:16;3.40;;;1.20;;
21122;SDS011;10719;48.130;11.630;2023-11-19T04:43:42;2.03;;;1.10;;
21122;SDS011;10719;48.130;11.630;2023-11-19T04:46:09;3.20;;;1.25;;
21122;SDS011;10719;48.130;11.630;2023-11-19T04:48:34;4.68;;;1.10;;
21122;SDS011;10719;48.130;11.630;2023-11-19T04:51:00;3.65;;;1.30;;
21122;SDS011;10719;48.130;11.630;2023-11-19T04:53:26;3.25;;;1.17;;
21122;SDS011;10719;48.130;11.630;2023-11-19T04:55:51;1.10;;;0.93;;
21122;SDS011;10719;48.130;11.630;2023-11-19T04:58:17;2.88;;;1.10;;
21122;SDS011;10719;48.130;11.630;2023-11-19T05:00:44;3.25;;;1.05;;
21122;SDS011;10719;48.130;11.630;2023-11-19T05:03:10;1.33;;;0.82;;
21122;SDS011;10719;48.130;11.630;2023-11-19T05:05:36;2.10;;;1.00;;
21122;SDS011;10719;48.130;11.630;2023-11-19T05:08:01;1.42;;;0.68;;
21122;SDS011;10719;48.130;11.630;2023-11-19T05:10:27;1.02;;;0.65;;
21122;SDS011;10719;48.130;11.630;2023-11-19T05:12:53;1.55;;;0.77;;
21122;SDS011;10719;48.130;11.630;2023-11-19T05:15:21;2.50;;;0.85;;
21122;SDS011;10719;48.130;11.630;2023-11-19T05:17:46;2.28;;;0.77;;
21122;SDS011;10719;48.130;11.630;2023-11-19T05:20:13;1.67;;;0.60;;
21122;SDS011;10719;48.130;11.630;2023-11-19T05:22:42;1.55;;;0.65;;
21122;SDS011;10719;48.130;11.630;2023-11-19T05:25:08;1.95;;;0.75;;
21122;SDS011;10719;48.130;11.630;2023-11-19T05:27:34;0.80;;;0.60;;
21122;SDS011;10719;48.130;11.630;2023-11-19T05:30:01;1.90;;;0.73;;
21122;SDS011;10719;48.130;11.630;2023-11-19T05:32:27;1.67;;;0.70;;
21122;SDS011;10719;48.130;11.630;2023-11-19T05:34:53;3.92;;;0.60;;
21122;SDS011;10719;48.130;11.630;2023-11-19T05:37:19;1.27;;;0.70;;
21122;SDS011;10719;48.130;11.630;2023-11-19T05:39:45;1.23;;;0.68;;
21122;SDS011;10719;48.130;11.630;2023-11-19T05:42:11;1.35;;;0.70;;
21122;SDS011;10719;48.130;11.630;2023-11-19T05:44:36;2.10;;;1.00;;
21122;SDS011;10719;48.130;11.630;2023-11-19T05:47:03;1.17;;;0.60;;
21122;SDS011;10719;48.130;11.630;2023-11-19T05:49:29;1.45;;;0.77;;
21122;SDS011;10719;48.130;11.630;2023-11-19T05:51:54;1.25;;;0.70;;
21122;SDS011;10719;48.130;11.630;2023-11-19T05:54:21;2.20;;;0.70;;
21122;SDS011;10719;48.130;11.630;2023-11-19T05:56:47;0.45;;;0.45;;
21122;SDS011;10719;48.130;11.630;2023-11-19T05:59:14;2.78;;;0.90;;
21122;SDS011;10719;48.130;11.630;2023-11-19T06:01:42;1.15;;;0.68;;
21122;SDS011;10719;48.130;11.630;2023-11-19T06:04:08;1.13;;;0.50;;
21122;SDS011;10719;48.130;11.630;2023-11-19T06:06:35;3.53;;;0.80;;
21122;SDS011;10719;48.130;11.630;2023-11-19T06:09:01;1.30;;;0.82;;
21122;SDS011;10719;48.130;11.630;2023-11-19T06:11:27;1.65;;;0.70;;
21122;SDS011;10719;48.130;11.630;2023-11-19T06:13:53;1.42;;;0.80;;
21122;SDS011;10719;48.130;11.630;2023-11-19T06:16:19;0.52;;;0.50;;
21122;SDS011;10719;48.130;11.630;2023-11-19T06:18:44;0.55;;;0.45;;
21122;SDS011;10719;48.130;11.630;2023-11-19T06:21:10;2.20;;;0.50;;
21122;SDS011;10719;48.130;11.630;2023-11-19T06:23:37;1.05;;;0.60;;
21122;SDS011;10719;48.130;11.630;2023-11-19T06:26:03;0.80;;;0.50;;
21122;SDS011;10719;48.130;11.630;2023-11-19T06:28:30;1.50;;;0.68;;
21122;SDS011;10719;48.130;11.630;2023-11-19T06:30:56;0.82;;;0.50;;
21122;SDS011;10719;48.130;11.630;2023-11-19T06:33:23;0.90;;;0.55;;
21122;SDS011;10719;48.130;11.630;2023-11-19T06:35:49;1.85;;;0.60;;
21122;SDS011;10719;48.130;11.630;2023-11-19T06:38:15;0.85;;;0.50;;
21122;SDS011;10719;48.130;11.630;2023-11-19T06:40:40;0.40;;;0.40;;
21122;SDS011;10719;48.130;11.630;2023-11-19T06:43:06;1.00;;;0.60;;
21122;SDS011;10719;48.130;11.630;2023-11-19T06:45:33;1.05;;;0.65;;
21122;SDS011;10719;48.130;11.630;2023-11-19T06:48:03;1.27;;;0.60;;
21122;SDS011;10719;48.130;11.630;2023-11-19T06:50:29;1.27;;;0.50;;
21122;SDS011;10719;48.130;11.630;2023-11-19T06:52:55;0.77;;;0.47;;
21122;SDS011;10719;48.130;11.630;2023-11-19T06:55:21;0.65;;;0.60;;
21122;SDS011;10719;48.130;11.630;2023-11-19T06:57:46;0.47;;;0.35;;
21122;SDS011;10719;48.130;11.630;2023-11-19T07:00:12;1.02;;;0.30;;
21122;SDS011;10719;48.130;11.630;2023-11-19T07:02:38;0.57;;;0.45;;
21122;SDS011;10719;48.130;11.630;2023-11-19T07:05:04;1.40;;;0.60;;
21122;SDS011;10719;48.130;11.630;2023-11-19T07:07:31;0.35;;;0.35;;
21122;SDS011;10719;48.130;11.630;2023-11-19T07:09:57;0.80;;;0.50;;
21122;SDS011;10719;48.130;11.630;2023-11-19T07:12:23;0.68;;;0.30;;
21122;SDS011;10719;48.130;11.630;2023-11-19T07:14:51;0.47;;;0.40;;
21122;SDS011;10719;48.130;11.630;2023-11-19T07:17:18;0.38;;;0.38;;
21122;SDS011;10719;48.130;11.630;2023-11-19T07:19:45;0.30;;;0.30;;
21122;SDS011;10719;48.130;11.630;2023-11-19T07:22:11;0.28;;;0.28;;
21122;SDS011;10719;48.130;11.630;2023-11-19T07:24:38;0.30;;;0.30;;
21122;SDS011;10719;48.130;11.630;2023-11-19T07:27:05;0.50;;;0.32;;
21122;SDS011;10719;48.130;11.630;2023-11-19T07:29:33;0.80;;;0.40;;
21122;SDS011;10719;48.130;11.630;2023-11-19T07:31:59;0.40;;;0.30;;
21122;SDS011;10719;48.130;11.630;2023-11-19T07:34:27;0.57;;;0.30;;
21122;SDS011;10719;48.130;11.630;2023-11-19T07:36:54;0.28;;;0.28;;
21122;SDS011;10719;48.130;11.630;2023-11-19T07:39:22;0.75;;;0.43;;
21122;SDS011;10719;48.130;11.630;2023-11-19T07:41:48;0.52;;;0.40;;
21122;SDS011;10719;48.130;11.630;2023-11-19T07:44:14;1.00;;;0.35;;
21122;SDS011;10719;48.130;11.630;2023-11-19T07:46:39;0.20;;;0.20;;
21122;SDS011;10719;48.130;11.630;2023-11-19T07:49:07;0.35;;;0.20;;
21122;SDS011;10719;48.130;11.630;2023-11-19T07:51:32;0.30;;;0.30;;
21122;SDS011;10719;48.130;11.630;2023-11-19T07:53:58;0.28;;;0.22;;
21122;SDS011;10719;48.130;11.630;2023-11-19T07:56:24;1.65;;;0.25;;
21122;SDS011;10719;48.130;11.630;2023-11-19T07:58:49;0.22;;;0.22;;
21122;SDS011;10719;48.130;11.630;2023-11-19T08:01:15;3.88;;;0.40;;
21122;SDS011;10719;48.130;11.630;2023-11-19T08:03:41;0.20;;;0.20;;
21122;SDS011;10719;48.130;11.630;2023-11-19T08:06:06;0.47;;;0.30;;
21122;SDS011;10719;48.130;11.630;2023-11-19T08:08:32;0.25;;;0.25;;
21122;SDS011;10719;48.130;11.630;2023-11-19T08:10:59;0.30;;;0.30;;
21122;SDS011;10719;48.130;11.630;2023-11-19T08:13:25;0.65;;;0.30;;
21122;SDS011;10719;48.130;11.630;2023-11-19T08:15:51;0.20;;;0.20;;
21122;SDS011;10719;48.130;11.630;2023-11-19T08:18:16;0.75;;;0.40;;
21122;SDS011;10719;48.130;11.630;2023-11-19T08:20:43;0.30;;;0.20;;
21122;SDS011;10719;48.130;11.630;2023-11-19T08:23:09;0.73;;;0.30;;
21122;SDS011;10719;48.130;11.630;2023-11-19T08:25:35;0.40;;;0.20;;
21122;SDS011;10719;48.130;11.630;2023-11-19T08:28:01;1.20;;;0.40;;
21122;SDS011;10719;48.130;11.630;2023-11-19T08:30:28;0.20;;;0.20;;
21122;SDS011;10719;48.130;11.630;2023-11-19T08:32:54;0.60;;;0.30;;
21122;SDS011;10719;48.130;11.630;2023-11-19T08:35:20;0.77;;;0.40;;
21122;SDS011;10719;48.130;11.630;2023-11-19T08:37:45;0.40;;;0.40;;
21122;SDS011;10719;48.130;11.630;2023-11-19T08:40:11;0.90;;;0.40;;
21122;SDS011;10719;48.130;11.630;2023-11-19T08:42:39;0.55;;;0.35;;
21122;SDS011;10719;48.130;11.630;2023-11-19T08:45:06;0.65;;;0.30;;
21122;SDS011;10719;48.130;11.630;2023-11-19T08:47:32;0.30;;;0.30;;
21122;SDS011;10719;48.130;11.630;2023-11-19T08:49:57;1.27;;;0.52;;
21122;SDS011;10719;48.130;11.630;2023-11-19T08:52:23;0.68;;;0.40;;
21122;SDS011;10719;48.130;11.630;2023-11-19T08:54:49;0.52;;;0.35;;
21122;SDS011;10719;48.130;11.630;2023-11-19T08:57:14;1.10;;;0.50;;
21122;SDS011;10719;48.130;11.630;2023-11-19T08:59:40;0.22;;;0.22;;
21122;SDS011;10719;48.130;11.630;2023-11-19T09:02:06;0.50;;;0.30;;
21122;SDS011;10719;48.130;11.630;2023-11-19T09:04:32;0.47;;;0.40;;
21122;SDS011;10719;48.130;11.630;2023-11-19T09:06:57;0.65;;;0.45;;
21122;SDS011;10719;48.130;11.630;2023-11-19T09:09:23;1.55;;;0.47;;
21122;SDS011;10719;48.130;11.630;2023-11-19T09:11:49;0.98;;;0.40;;
21122;SDS011;10719;48.130;11.630;2023-11-19T09:14:14;0.82;;;0.50;;
21122;SDS011;10719;48.130;11.630;2023-11-19T09:16:40;0.65;;;0.55;;
21122;SDS011;10719;48.130;11.630;2023-11-19T09:19:06;0.55;;;0.43;;
21122;SDS011;10719;48.130;11.630;2023-11-19T09:21:32;1.38;;;0.60;;
21122;SDS011;10719;48.130;11.630;2023-11-19T09:23:59;0.98;;;0.60;;
21122;SDS011;10719;48.130;11.630;2023-11-19T09:26:25;0.30;;;0.30;;
21122;SDS011;10719;48.130;11.630;2023-11-19T09:28:50;0.73;;;0.50;;
21122;SDS011;10719;48.130;11.630;2023-11-19T09:31:16;0.77;;;0.47;;
21122;SDS011;10719;48.130;11.630;2023-11-19T09:33:43;0.98;;;0.55;;
21122;SDS011;10719;48.130;11.630;2023-11-19T09:36:09;0.77;;;0.50;;
21122;SDS011;10719;48.130;11.630;2023-11-19T09:38:38;1.10;;;0.50;;
21122;SDS011;10719;48.130;11.630;2023-11-19T09:41:05;0.82;;;0.50;;
21122;SDS011;10719;48.130;11.630;2023-11-19T09:43:34;0.57;;;0.40;;
21122;SDS011;10719;48.130;11.630;2023-11-19T09:46:07;1.02;;;0.40;;
21122;SDS011;10719;48.130;11.630;2023-11-19T09:48:38;0.88;;;0.45;;
21122;SDS011;10719;48.130;11.630;2023-11-19T09:51:08;0.47;;;0.40;;
21122;SDS011;10719;48.130;11.630;2023-11-19T09:53:35;0.63;;;0.50;;
21122;SDS011;10719;48.130;11.630;2023-11-19T09:56:01;0.60;;;0.50;;
21122;SDS011;10719;48.130;11.630;2023-11-19T09:58:28;0.75;;;0.40;;
21122;SDS011;10719;48.130;11.630;2023-11-19T10:00:55;1.33;;;0.55;;
21122;SDS011;10719;48.130;11.630;2023-11-19T10:03:24;1.65;;;0.60;;
21122;SDS011;10719;48.130;11.630;2023-11-19T10:05:50;0.60;;;0.60;;
21122;SDS011;10719;48.130;11.630;2023-11-19T10:08:16;0.77;;;0.40;;
21122;SDS011;10719;48.130;11.630;2023-11-19T10:10:42;0.65;;;0.60;;
21122;SDS011;10719;48.130;11.630;2023-11-19T10:13:08;0.98;;;0.47;;
21122;SDS011;10719;48.130;11.630;2023-11-19T10:15:37;0.95;;;0.50;;
21122;SDS011;10719;48.130;11.630;2023-11-19T10:18:03;1.80;;;0.75;;
21122;SDS011;10719;48.130;11.630;2023-11-19T10:20:37;0.93;;;0.52;;
21122;SDS011;10719;48.130;11.630;2023-11-19T10:23:08;0.43;;;0.40;;
21122;SDS011;10719;48.130;11.630;2023-11-19T10:25:34;1.27;;;0.45;;
21122;SDS011;10719;48.130;11.630;2023-11-19T10:28:00;0.35;;;0.35;;
21122;SDS011;10719;48.130;11.630;2023-11-19T10:30:29;1.17;;;0.57;;
21122;SDS011;10719;48.130;11.630;2023-11-19T10:35:34;0.35;;;0.30;;
21122;SDS011;10719;48.130;11.630;2023-11-19T10:38:13;0.38;;;0.30;;
21122;SDS011;10719;48.130;11.630;2023-11-19T10:40:40;1.05;;;0.50;;
21122;SDS011;10719;48.130;11.630;2023-11-19T10:43:06;0.45;;;0.32;;
21122;SDS011;10719;48.130;11.630;2023-11-19T10:45:33;1.00;;;0.38;;
21122;SDS011;10719;48.130;11.630;2023-11-19T10:47:59;0.40;;;0.35;;
21122;SDS011;10719;48.130;11.630;2023-11-19T10:50:26;1.30;;;0.45;;
21122;SDS011;10719;48.130;11.630;2023-11-19T10:52:55;1.02;;;0.55;;
21122;SDS011;10719;48.130;11.630;2023-11-19T10:55:29;0.85;;;0.50;;
21122;SDS011;10719;48.130;11.630;2023-11-19T10:57:59;1.55;;;0.35;;
21122;SDS011;10719;48.130;11.630;2023-11-19T11:01:11;1.63;;;0.45;;
21122;SDS011;10719;48.130;11.630;2023-11-19T11:03:20;0.52;;;0.30;;
21122;SDS011;10719;48.130;11.630;2023-11-19T11:05:50;1.77;;;0.50;;
21122;SDS011;10719;48.130;11.630;2023-11-19T11:08:17;0.47;;;0.45;;
21122;SDS011;10719;48.130;11.630;2023-11-19T11:10:46;1.38;;;0.60;;
21122;SDS011;10719;48.130;11.630;2023-11-19T11:13:23;0.73;;;0.50;;
21122;SDS011;10719;48.130;11.630;2023-11-19T11:15:50;1.48;;;0.57;;
21122;SDS011;10719;48.130;11.630;2023-11-19T11:18:16;1.00;;;0.50;;
21122;SDS011;10719;48.130;11.630;2023-11-19T11:20:46;0.40;;;0.30;;
21122;SDS011;10719;48.130;11.630;2023-11-19T11:31:28;1.15;;;0.60;;
21122;SDS011;10719;48.130;11.630;2023-11-19T11:34:26;0.63;;;0.40;;
21122;SDS011;10719;48.130;11.630;2023-11-19T11:39:41;0.60;;;0.40;;
21122;SDS011;10719;48.130;11.630;2023-11-19T11:50:19;0.40;;;0.28;;
21122;SDS011;10719;48.130;11.630;2023-11-19T11:58:25;0.75;;;0.40;;
21122;SDS011;10719;48.130;11.630;2023-11-19T12:00:52;2.55;;;0.50;;
21122;SDS011;10719;48.130;11.630;2023-11-19T12:03:19;0.50;;;0.40;;
21122;SDS011;10719;48.130;11.630;2023-11-19T12:05:49;0.98;;;0.47;;
21122;SDS011;10719;48.130;11.630;2023-11-19T12:08:17;1.63;;;0.57;;
21122;SDS011;10719;48.130;11.630;2023-11-19T12:10:49;1.35;;;0.50;;
21122;SDS011;10719;48.130;11.630;2023-11-19T12:13:19;5.13;;;0.52;;
21122;SDS011;10719;48.130;11.630;2023-11-19T12:18:27;0.70;;;0.30;;
21122;SDS011;10719;48.130;11.630;2023-11-19T12:20:54;0.98;;;0.57;;
21122;SDS011;10719;48.130;11.630;2023-11-19T12:23:20;1.00;;;0.50;;
21122;SDS011;10719;48.130;11.630;2023-11-19T12:25:46;1.70;;;0.50;;
21122;SDS011;10719;48.130;11.630;2023-11-19T12:28:12;2.30;;;0.50;;
21122;SDS011;10719;48.130;11.630;2023-11-19T12:30:38;0.65;;;0.40;;
21122;SDS011;10719;48.130;11.630;2023-11-19T12:33:10;1.23;;;0.40;;
21122;SDS011;10719;48.130;11.630;2023-11-19T12:35:40;1.17;;;0.50;;
21122;SDS011;10719;48.130;11.630;2023-11-19T12:38:07;0.95;;;0.50;;
21122;SDS011;10719;48.130;11.630;2023-11-19T12:40:33;2.25;;;0.40;;
21122;SDS011;10719;48.130;11.630;2023-11-19T12:42:58;1.33;;;0.60;;
21122;SDS011;10719;48.130;11.630;2023-11-19T12:45:33;0.45;;;0.38;;
21122;SDS011;10719;48.130;11.630;2023-11-19T12:48:06;0.98;;;0.30;;
21122;SDS011;10719;48.130;11.630;2023-11-19T12:50:53;0.38;;;0.30;;
21122;SDS011;10719;48.130;11.630;2023-11-19T12:53:25;0.28;;;0.28;;
21122;SDS011;10719;48.130;11.630;2023-11-19T12:55:52;0.57;;;0.43;;
21122;SDS011;10719;48.130;11.630;2023-11-19T12:58:29;0.73;;;0.20;;
21122;SDS011;10719;48.130;11.630;2023-11-19T13:01:03;0.80;;;0.45;;
21122;SDS011;10719;48.130;11.630;2023-11-19T13:03:34;0.80;;;0.43;;
21122;SDS011;10719;48.130;11.630;2023-11-19T13:06:04;0.60;;;0.38;;
21122;SDS011;10719;48.130;11.630;2023-11-19T13:08:45;1.10;;;0.47;;
21122;SDS011;10719;48.130;11.630;2023-11-19T13:11:30;0.65;;;0.40;;
21122;SDS011;10719;48.130;11.630;2023-11-19T13:13:57;0.52;;;0.30;;
21122;SDS011;10719;48.130;11.630;2023-11-19T13:16:23;0.93;;;0.52;;
21122;SDS011;10719;48.130;11.630;2023-11-19T13:18:50;0.73;;;0.40;;
21122;SDS011;10719;48.130;11.630;2023-11-19T13:21:16;3.97;;;0.60;;
21122;SDS011;10719;48.130;11.630;2023-11-19T13:23:42;0.40;;;0.40;;
21122;SDS011;10719;48.130;11.630;2023-11-19T13:26:08;2.42;;;0.80;;
21122;SDS011;10719;48.130;11.630;2023-11-19T13:28:34;0.73;;;0.50;;
21122;SDS011;10719;48.130;11.630;2023-11-19T13:31:00;2.10;;;0.50;;
21122;SDS011;10719;48.130;11.630;2023-11-19T13:33:26;2.85;;;0.50;;
21122;SDS011;10719;48.130;11.630;2023-11-19T13:35:51;0.82;;;0.45;;
21122;SDS011;10719;48.130;11.630;2023-11-19T13:38:18;1.70;;;0.60;;
21122;SDS011;10719;48.130;11.630;2023-11-19T13:40:43;1.02;;;0.45;;
21122;SDS011;10719;48.130;11.630;2023-11-19T13:43:09;1.63;;;0.70;;
21122;SDS011;10719;48.130;11.630;2023-11-19T13:45:34;0.65;;;0.40;;
21122;SDS011;10719;48.130;11.630;2023-11-19T13:48:00;1.40;;;0.40;;
21122;SDS011;10719;48.130;11.630;2023-11-19T13:50:26;0.75;;;0.40;;
21122;SDS011;10719;48.130;11.630;2023-11-19T13:52:53;1.00;;;0.52;;
21122;SDS011;10719;48.130;11.630;2023-11-19T13:55:19;0.95;;;0.40;;
21122;SDS011;10719;48.130;11.630;2023-11-19T13:57:45;0.30;;;0.30;;
21122;SDS011;10719;48.130;11.630;2023-11-19T14:00:18;1.65;;;0.50;;
21122;SDS011;10719;48.130;11.630;2023-11-19T14:02:44;0.77;;;0.30;;
21122;SDS011;10719;48.130;11.630;2023-11-19T14:05:12;0.40;;;0.40;;
21122;SDS011;10719;48.130;11.630;2023-11-19T14:07:38;0.60;;;0.50;;
21122;SDS011;10719;48.130;11.630;2023-11-19T14:10:05;1.17;;;0.40;;
21122;SDS011;10719;48.130;11.630;2023-11-19T14:12:31;0.98;;;0.50;;
21122;SDS011;10719;48.130;11.630;2023-11-19T14:14:58;1.27;;;0.40;;
21122;SDS011;10719;48.130;11.630;2023-11-19T14:17:24;1.13;;;0.50;;
21122;SDS011;10719;48.130;11.630;2023-11-19T14:19:51;3.67;;;0.70;;
21122;SDS011;10719;48.130;11.630;2023-11-19T14:22:16;0.35;;;0.20;;
21122;SDS011;10719;48.130;11.630;2023-11-19T14:24:42;0.95;;;0.47;;
21122;SDS011;10719;48.130;11.630;2023-11-19T14:27:08;1.15;;;0.40;;
21122;SDS011;10719;48.130;11.630;2023-11-19T14:29:34;0.50;;;0.43;;
21122;SDS011;10719;48.130;11.630;2023-11-19T14:32:01;1.90;;;0.40;;
21122;SDS011;10719;48.130;11.630;2023-11-19T14:34:28;0.93;;;0.40;;
21122;SDS011;10719;48.130;11.630;2023-11-19T14:36:54;1.23;;;0.30;;
21122;SDS011;10719;48.130;11.630;2023-11-19T14:39:20;0.55;;;0.50;;
21122;SDS011;10719;48.130;11.630;2023-11-19T14:41:45;1.52;;;0.60;;
21122;SDS011;10719;48.130;11.630;2023-11-19T14:44:11;0.68;;;0.50;;
21122;SDS011;10719;48.130;11.630;2023-11-19T14:46:37;1.02;;;0.50;;
21122;SDS011;10719;48.130;11.630;2023-11-19T14:49:03;1.63;;;0.60;;
21122;SDS011;10719;48.130;11.630;2023-11-19T14:51:35;1.55;;;0.63;;
21122;SDS011;10719;48.130;11.630;2023-11-19T14:54:02;0.52;;;0.50;;
21122;SDS011;10719;48.130;11.630;2023-11-19T14:56:28;3.58;;;0.52;;
21122;SDS011;10719;48.130;11.630;2023-11-19T14:58:54;0.63;;;0.30;;
21122;SDS011;10719;48.130;11.630;2023-11-19T15:01:20;2.67;;;0.82;;
21122;SDS011;10719;48.130;11.630;2023-11-19T15:03:45;0.32;;;0.25;;